Weather at Longwarry Airport

Public forecast

Using degrees Celsius for public forecast. Weather courtesy of forecast.io.

Closest aviation weather report (METAR) to Longwarry Airport

Closest report is Melbourne International Airport, 51.4 nm (95.2 km) WNW.

2024/06/15 16:00 (retrieved 16 minutes ago)

YMML 151600Z 25005KT 9999 FEW025 BKN045 07/06 Q1022 RF000/0000

Closest aviation forecast (TAF) to Longwarry Airport

Closest forecast is Melbourne International Airport, 51.4 nm (95.2 km) WNW.

2024/06/15 15:54 (retrieved 22 minutes ago)

TAF YMML 151412Z 1515/1618 25006KT 9999 SCT030 FM160000 19014KT 9999 BKN035 FM160900 20010KT 9999 BKN025